Rockenbach Airport

Jump to: basic info | weather | runways | comments

Related pages: nearby airports | nearby navaids | notams | map

Basic information (top)

Codes: LL97
Location: lon 42.338902, lat -88.084801, elev 800 ft / 244 m msl
Status: small_airport

Weather (top)

Current conditions for Waukegan Regional Airport 11nm (20km) ENE (rec'd 2014/10/25 22:55Z):

KUGN 252255Z 28005KT 10SM CLR 17/M03 A2990 RMK AO2 SLP121 T01721033

Airport forecast for Kenosha Regional Airport 17nm (31km) NNE (rec'd 2014/10/25 18:30Z):

TAF KENW 251729Z 2518/2618 29014G23KT P6SM SKC 
     FM260100 30008KT P6SM SKC 
     FM261300 30005KT P6SM FEW250

Runways (top)

N/S: 2,000 x 100 ft (610 x 30 m) — grass — not lighted

Latest comments (top)

No comments yet for Rockenbach Airport

More... (top)

See also NOTAMs and nearby airports and navaids, or visit the Rockenbach Airport page at the main OurAirports website..